Aérodrome :
LOGIN :

S'inscrire | Disclaimer

   EN    FR    IT 

 










Légende :    VFR   VFR Marginal   IFR   IFR Intensif   IFR Très Intensif
Visi : 
Plafond : 
>= 8 km
>= 3000ft
5 à 8 km
1000 à 3000 ft
1500m à 5 km
500 à 1000 ft
800 à 1500m
200 à 500 ft
< 800m
< 200 ft
Symboles :   Orages  Brouillard  Fortes neiges  Fortes précipitations  Vent > 20 kt
SIGMETs :   Divers  Orages  Givrage  Turbulence  Onde Orograph.  Cendres Volcan.






- Altitude de l'aérodrome : 86 ft
- Code IATA : HAU


ENHD - Haugesund

DERNIER METAR :
  • 231220Z 18016KT 9999 FEW018 SCT024 BKN033 12/08 Q1011

METARs EXPIRÉS :
  • 231150Z 19015KT 9999 -DZ SCT016 BKN032 12/08 Q1011
  • 231120Z 18017KT 9999 SCT017 BKN040 12/08 Q1011
  • 231050Z 18015KT 9999 FEW015 SCT020 BKN040 12/08 Q1011
  • 231020Z AUTO 18013KT 150V210 9999 FEW016/// BKN039/// 12/08 Q1011
  • 230950Z AUTO 19015KT 9999 SCT018/// BKN036/// 11/08 Q1011

TAF TAF ENHD
Valide du 23 à 12h jusqu'au 23 à 21h UTC


231100Z 2312/2321 20018KT 9999 FEW015 BKN030
PROB40
TEMPO 2312/2321 BKN012



MET'MAP, la Météo Aéronautique d'un coup d'oeil ! - Copyright ORBIFLY Décembre 2007 - Disclaimer

ORBIFLY MET'MAP TEAM :

Programmation & Développement : Alexandra Zaïnal
Conception & Développement : Baudouin d'Aumeries
Co-Programmation & Développement : Marc-Olivier Méhu
Soutien technique & logistique : Manuel Goepfert

Contact : metmap@orbifly.com




SOURCES & CREDITS :

   NOAA